sensor_id;sensor_type;location;lat;lon;timestamp;pressure;altitude;pressure_sealevel;temperature
73937;BMP180;59249;59.736;30.568;2022-10-04T00:00:11;99402.00;;;8.70
73937;BMP180;59249;59.736;30.568;2022-10-04T00:02:52;99409.00;;;8.80
73937;BMP180;59249;59.736;30.568;2022-10-04T00:05:29;99409.00;;;8.70
73937;BMP180;59249;59.736;30.568;2022-10-04T00:08:12;99406.00;;;8.80
73937;BMP180;59249;59.736;30.568;2022-10-04T00:11:00;99406.00;;;8.80
73937;BMP180;59249;59.736;30.568;2022-10-04T00:13:35;99419.00;;;8.90
73937;BMP180;59249;59.736;30.568;2022-10-04T00:16:05;99404.00;;;8.80
73937;BMP180;59249;59.736;30.568;2022-10-04T00:18:38;99404.00;;;8.70
73937;BMP180;59249;59.736;30.568;2022-10-04T00:21:08;99414.00;;;8.90
73937;BMP180;59249;59.736;30.568;2022-10-04T00:23:42;99414.00;;;8.70
73937;BMP180;59249;59.736;30.568;2022-10-04T00:29:38;99417.00;;;8.90
73937;BMP180;59249;59.736;30.568;2022-10-04T00:32:29;99424.00;;;8.80
73937;BMP180;59249;59.736;30.568;2022-10-04T00:34:58;99424.00;;;8.80
73937;BMP180;59249;59.736;30.568;2022-10-04T00:37:55;99426.00;;;8.80
73937;BMP180;59249;59.736;30.568;2022-10-04T00:40:27;99417.00;;;8.80
73937;BMP180;59249;59.736;30.568;2022-10-04T00:43:01;99429.00;;;8.70
73937;BMP180;59249;59.736;30.568;2022-10-04T00:45:37;99420.00;;;8.80
73937;BMP180;59249;59.736;30.568;2022-10-04T00:48:32;99417.00;;;8.80
73937;BMP180;59249;59.736;30.568;2022-10-04T00:51:11;99420.00;;;8.70
73937;BMP180;59249;59.736;30.568;2022-10-04T00:53:54;99431.00;;;8.80
73937;BMP180;59249;59.736;30.568;2022-10-04T00:56:37;99430.00;;;8.70
73937;BMP180;59249;59.736;30.568;2022-10-04T00:59:21;99423.00;;;8.70
73937;BMP180;59249;59.736;30.568;2022-10-04T01:02:01;99446.00;;;8.80
73937;BMP180;59249;59.736;30.568;2022-10-04T01:04:38;99429.00;;;8.80
73937;BMP180;59249;59.736;30.568;2022-10-04T01:07:12;99436.00;;;8.70
73937;BMP180;59249;59.736;30.568;2022-10-04T01:09:48;99439.00;;;8.80
73937;BMP180;59249;59.736;30.568;2022-10-04T01:12:32;99436.00;;;8.80
73937;BMP180;59249;59.736;30.568;2022-10-04T01:15:11;99445.00;;;8.60
73937;BMP180;59249;59.736;30.568;2022-10-04T01:18:09;99460.00;;;8.50
73937;BMP180;59249;59.736;30.568;2022-10-04T01:20:52;99452.00;;;8.60
73937;BMP180;59249;59.736;30.568;2022-10-04T01:23:38;99452.00;;;8.50
73937;BMP180;59249;59.736;30.568;2022-10-04T01:26:34;99452.00;;;8.40
73937;BMP180;59249;59.736;30.568;2022-10-04T01:29:10;99449.00;;;8.50
73937;BMP180;59249;59.736;30.568;2022-10-04T01:31:43;99455.00;;;8.60
73937;BMP180;59249;59.736;30.568;2022-10-04T01:34:15;99455.00;;;8.50
73937;BMP180;59249;59.736;30.568;2022-10-04T01:36:46;99455.00;;;8.50
73937;BMP180;59249;59.736;30.568;2022-10-04T01:39:19;99458.00;;;8.50
73937;BMP180;59249;59.736;30.568;2022-10-04T01:41:53;99455.00;;;8.50
73937;BMP180;59249;59.736;30.568;2022-10-04T01:44:30;99456.00;;;8.50
73937;BMP180;59249;59.736;30.568;2022-10-04T01:47:08;99467.00;;;8.50
73937;BMP180;59249;59.736;30.568;2022-10-04T01:49:41;99469.00;;;8.50
73937;BMP180;59249;59.736;30.568;2022-10-04T01:52:16;99468.00;;;8.50
73937;BMP180;59249;59.736;30.568;2022-10-04T01:54:57;99468.00;;;8.50
73937;BMP180;59249;59.736;30.568;2022-10-04T01:57:32;99472.00;;;8.50
73937;BMP180;59249;59.736;30.568;2022-10-04T02:00:07;99463.00;;;8.40
73937;BMP180;59249;59.736;30.568;2022-10-04T02:02:42;99473.00;;;8.40
73937;BMP180;59249;59.736;30.568;2022-10-04T02:05:19;99478.00;;;8.30
73937;BMP180;59249;59.736;30.568;2022-10-04T02:07:56;99468.00;;;8.40
73937;BMP180;59249;59.736;30.568;2022-10-04T02:10:33;99476.00;;;8.40
73937;BMP180;59249;59.736;30.568;2022-10-04T02:13:13;99478.00;;;8.30
73937;BMP180;59249;59.736;30.568;2022-10-04T02:15:45;99476.00;;;8.40
73937;BMP180;59249;59.736;30.568;2022-10-04T02:18:17;99480.00;;;8.30
73937;BMP180;59249;59.736;30.568;2022-10-04T02:20:49;99477.00;;;8.40
73937;BMP180;59249;59.736;30.568;2022-10-04T02:23:20;99492.00;;;8.40
73937;BMP180;59249;59.736;30.568;2022-10-04T02:25:51;99494.00;;;8.30
73937;BMP180;59249;59.736;30.568;2022-10-04T02:28:20;99489.00;;;8.30
73937;BMP180;59249;59.736;30.568;2022-10-04T02:31:10;99495.00;;;8.20
73937;BMP180;59249;59.736;30.568;2022-10-04T02:33:57;99503.00;;;8.40
73937;BMP180;59249;59.736;30.568;2022-10-04T02:36:28;99505.00;;;8.40
73937;BMP180;59249;59.736;30.568;2022-10-04T02:39:00;99509.00;;;8.40
73937;BMP180;59249;59.736;30.568;2022-10-04T02:41:37;99495.00;;;8.40
73937;BMP180;59249;59.736;30.568;2022-10-04T02:44:13;99510.00;;;8.30
73937;BMP180;59249;59.736;30.568;2022-10-04T02:46:49;99505.00;;;8.20
73937;BMP180;59249;59.736;30.568;2022-10-04T02:49:27;99511.00;;;8.30
73937;BMP180;59249;59.736;30.568;2022-10-04T02:52:01;99510.00;;;8.20
73937;BMP180;59249;59.736;30.568;2022-10-04T02:54:37;99515.00;;;8.20
73937;BMP180;59249;59.736;30.568;2022-10-04T02:57:17;99511.00;;;8.10
73937;BMP180;59249;59.736;30.568;2022-10-04T02:59:48;99518.00;;;8.20
73937;BMP180;59249;59.736;30.568;2022-10-04T03:02:23;99510.00;;;8.10
73937;BMP180;59249;59.736;30.568;2022-10-04T03:05:00;99517.00;;;8.10
73937;BMP180;59249;59.736;30.568;2022-10-04T03:07:34;99512.00;;;8.00
73937;BMP180;59249;59.736;30.568;2022-10-04T03:10:08;99507.00;;;7.90
73937;BMP180;59249;59.736;30.568;2022-10-04T03:12:40;99522.00;;;7.80
73937;BMP180;59249;59.736;30.568;2022-10-04T03:15:11;99532.00;;;7.90
73937;BMP180;59249;59.736;30.568;2022-10-04T03:17:40;99518.00;;;7.90
73937;BMP180;59249;59.736;30.568;2022-10-04T03:20:12;99534.00;;;7.80
73937;BMP180;59249;59.736;30.568;2022-10-04T03:22:49;99527.00;;;7.90
73937;BMP180;59249;59.736;30.568;2022-10-04T03:25:24;99531.00;;;7.80
73937;BMP180;59249;59.736;30.568;2022-10-04T03:28:00;99531.00;;;7.80
73937;BMP180;59249;59.736;30.568;2022-10-04T03:30:31;99532.00;;;7.90
73937;BMP180;59249;59.736;30.568;2022-10-04T03:33:04;99533.00;;;7.80
73937;BMP180;59249;59.736;30.568;2022-10-04T03:35:35;99538.00;;;7.90
73937;BMP180;59249;59.736;30.568;2022-10-04T03:38:07;99529.00;;;7.80
73937;BMP180;59249;59.736;30.568;2022-10-04T03:40:42;99537.00;;;7.90
73937;BMP180;59249;59.736;30.568;2022-10-04T03:43:22;99534.00;;;8.00
73937;BMP180;59249;59.736;30.568;2022-10-04T03:45:52;99541.00;;;8.00
73937;BMP180;59249;59.736;30.568;2022-10-04T03:48:30;99544.00;;;8.00
73937;BMP180;59249;59.736;30.568;2022-10-04T03:51:04;99542.00;;;8.00
73937;BMP180;59249;59.736;30.568;2022-10-04T03:53:36;99542.00;;;8.00
73937;BMP180;59249;59.736;30.568;2022-10-04T03:56:11;99550.00;;;7.90
73937;BMP180;59249;59.736;30.568;2022-10-04T03:58:45;99549.00;;;7.90
73937;BMP180;59249;59.736;30.568;2022-10-04T04:01:23;99552.00;;;7.90
73937;BMP180;59249;59.736;30.568;2022-10-04T04:04:10;99547.00;;;7.80
73937;BMP180;59249;59.736;30.568;2022-10-04T04:06:51;99544.00;;;7.80
73937;BMP180;59249;59.736;30.568;2022-10-04T04:09:37;99547.00;;;7.80
73937;BMP180;59249;59.736;30.568;2022-10-04T04:12:13;99551.00;;;7.80
73937;BMP180;59249;59.736;30.568;2022-10-04T04:14:49;99561.00;;;7.90
73937;BMP180;59249;59.736;30.568;2022-10-04T04:17:37;99551.00;;;7.80
73937;BMP180;59249;59.736;30.568;2022-10-04T04:20:19;99551.00;;;7.90
73937;BMP180;59249;59.736;30.568;2022-10-04T04:22:59;99549.00;;;7.90
73937;BMP180;59249;59.736;30.568;2022-10-04T04:25:33;99546.00;;;7.90
73937;BMP180;59249;59.736;30.568;2022-10-04T04:28:12;99545.00;;;7.80
73937;BMP180;59249;59.736;30.568;2022-10-04T04:30:52;99539.00;;;7.80
73937;BMP180;59249;59.736;30.568;2022-10-04T04:33:28;99546.00;;;7.90
73937;BMP180;59249;59.736;30.568;2022-10-04T04:36:03;99550.00;;;7.90
73937;BMP180;59249;59.736;30.568;2022-10-04T04:38:34;99548.00;;;7.90
73937;BMP180;59249;59.736;30.568;2022-10-04T04:41:23;99555.00;;;7.90
73937;BMP180;59249;59.736;30.568;2022-10-04T04:43:53;99565.00;;;8.00
73937;BMP180;59249;59.736;30.568;2022-10-04T04:46:24;99548.00;;;8.00
73937;BMP180;59249;59.736;30.568;2022-10-04T04:48:58;99560.00;;;7.80
73937;BMP180;59249;59.736;30.568;2022-10-04T04:51:32;99550.00;;;7.80
73937;BMP180;59249;59.736;30.568;2022-10-04T04:54:02;99563.00;;;7.90
73937;BMP180;59249;59.736;30.568;2022-10-04T04:56:34;99565.00;;;7.90
73937;BMP180;59249;59.736;30.568;2022-10-04T04:59:05;99555.00;;;7.90
73937;BMP180;59249;59.736;30.568;2022-10-04T05:01:41;99555.00;;;7.90
73937;BMP180;59249;59.736;30.568;2022-10-04T05:04:19;99562.00;;;7.90
73937;BMP180;59249;59.736;30.568;2022-10-04T05:06:59;99563.00;;;8.00
73937;BMP180;59249;59.736;30.568;2022-10-04T05:09:31;99572.00;;;8.00
73937;BMP180;59249;59.736;30.568;2022-10-04T05:12:05;99564.00;;;8.00
73937;BMP180;59249;59.736;30.568;2022-10-04T05:14:39;99566.00;;;7.90
73937;BMP180;59249;59.736;30.568;2022-10-04T05:17:18;99573.00;;;8.00
73937;BMP180;59249;59.736;30.568;2022-10-04T05:19:50;99567.00;;;8.10
73937;BMP180;59249;59.736;30.568;2022-10-04T05:22:24;99565.00;;;8.10
73937;BMP180;59249;59.736;30.568;2022-10-04T05:24:55;99575.00;;;8.10
73937;BMP180;59249;59.736;30.568;2022-10-04T05:27:31;99576.00;;;8.10
73937;BMP180;59249;59.736;30.568;2022-10-04T05:30:05;99580.00;;;8.10
73937;BMP180;59249;59.736;30.568;2022-10-04T05:32:49;99573.00;;;8.10
73937;BMP180;59249;59.736;30.568;2022-10-04T05:35:26;99569.00;;;8.10
73937;BMP180;59249;59.736;30.568;2022-10-04T05:38:03;99573.00;;;8.00
73937;BMP180;59249;59.736;30.568;2022-10-04T05:40:43;99574.00;;;8.00
73937;BMP180;59249;59.736;30.568;2022-10-04T05:43:28;99570.00;;;7.90
73937;BMP180;59249;59.736;30.568;2022-10-04T05:46:29;99582.00;;;7.90
73937;BMP180;59249;59.736;30.568;2022-10-04T05:49:06;99584.00;;;7.90
73937;BMP180;59249;59.736;30.568;2022-10-04T05:51:49;99579.00;;;7.90
73937;BMP180;59249;59.736;30.568;2022-10-04T05:54:24;99585.00;;;8.00
73937;BMP180;59249;59.736;30.568;2022-10-04T05:57:19;99586.00;;;7.90
73937;BMP180;59249;59.736;30.568;2022-10-04T06:00:12;99595.00;;;8.10
73937;BMP180;59249;59.736;30.568;2022-10-04T06:03:04;99587.00;;;8.00
73937;BMP180;59249;59.736;30.568;2022-10-04T06:05:50;99589.00;;;8.00
73937;BMP180;59249;59.736;30.568;2022-10-04T06:08:29;99589.00;;;8.00
73937;BMP180;59249;59.736;30.568;2022-10-04T06:11:22;99599.00;;;8.10
73937;BMP180;59249;59.736;30.568;2022-10-04T06:14:34;99590.00;;;8.00
73937;BMP180;59249;59.736;30.568;2022-10-04T06:17:34;99599.00;;;8.00
73937;BMP180;59249;59.736;30.568;2022-10-04T06:20:20;99592.00;;;8.00
73937;BMP180;59249;59.736;30.568;2022-10-04T06:23:26;99593.00;;;8.00
73937;BMP180;59249;59.736;30.568;2022-10-04T06:25:58;99592.00;;;8.10
73937;BMP180;59249;59.736;30.568;2022-10-04T06:28:34;99593.00;;;8.10
73937;BMP180;59249;59.736;30.568;2022-10-04T06:31:29;99588.00;;;8.10
73937;BMP180;59249;59.736;30.568;2022-10-04T06:44:12;99598.00;;;8.10
73937;BMP180;59249;59.736;30.568;2022-10-04T06:47:07;99608.00;;;8.10
73937;BMP180;59249;59.736;30.568;2022-10-04T06:49:53;99606.00;;;8.20
73937;BMP180;59249;59.736;30.568;2022-10-04T06:53:06;99606.00;;;8.20
73937;BMP180;59249;59.736;30.568;2022-10-04T06:59:11;99612.00;;;8.20
73937;BMP180;59249;59.736;30.568;2022-10-04T07:01:59;99614.00;;;8.20
73937;BMP180;59249;59.736;30.568;2022-10-04T07:04:36;99610.00;;;8.20
73937;BMP180;59249;59.736;30.568;2022-10-04T07:07:29;99618.00;;;8.20
73937;BMP180;59249;59.736;30.568;2022-10-04T07:10:20;99619.00;;;8.40
73937;BMP180;59249;59.736;30.568;2022-10-04T07:13:15;99629.00;;;8.40
73937;BMP180;59249;59.736;30.568;2022-10-04T07:15:57;99620.00;;;8.40
73937;BMP180;59249;59.736;30.568;2022-10-04T07:18:40;99624.00;;;8.50
73937;BMP180;59249;59.736;30.568;2022-10-04T07:21:15;99626.00;;;8.60
73937;BMP180;59249;59.736;30.568;2022-10-04T07:23:48;99621.00;;;8.60
73937;BMP180;59249;59.736;30.568;2022-10-04T07:26:25;99627.00;;;8.60
73937;BMP180;59249;59.736;30.568;2022-10-04T07:29:01;99620.00;;;8.70
73937;BMP180;59249;59.736;30.568;2022-10-04T07:32:00;99624.00;;;8.80
73937;BMP180;59249;59.736;30.568;2022-10-04T07:34:36;99624.00;;;8.70
73937;BMP180;59249;59.736;30.568;2022-10-04T07:37:12;99627.00;;;8.70
73937;BMP180;59249;59.736;30.568;2022-10-04T07:39:46;99628.00;;;8.80
73937;BMP180;59249;59.736;30.568;2022-10-04T07:42:24;99628.00;;;9.00
73937;BMP180;59249;59.736;30.568;2022-10-04T07:45:09;99631.00;;;9.00
73937;BMP180;59249;59.736;30.568;2022-10-04T07:47:43;99643.00;;;9.10
73937;BMP180;59249;59.736;30.568;2022-10-04T07:50:20;99643.00;;;9.20
73937;BMP180;59249;59.736;30.568;2022-10-04T07:52:56;99646.00;;;9.20
73937;BMP180;59249;59.736;30.568;2022-10-04T07:55:49;99647.00;;;9.10
73937;BMP180;59249;59.736;30.568;2022-10-04T07:58:35;99647.00;;;9.20
73937;BMP180;59249;59.736;30.568;2022-10-04T08:01:24;99650.00;;;9.40
73937;BMP180;59249;59.736;30.568;2022-10-04T08:04:08;99656.00;;;9.30
73937;BMP180;59249;59.736;30.568;2022-10-04T08:06:53;99655.00;;;9.30
73937;BMP180;59249;59.736;30.568;2022-10-04T08:09:36;99658.00;;;9.40
73937;BMP180;59249;59.736;30.568;2022-10-04T08:12:24;99658.00;;;9.40
73937;BMP180;59249;59.736;30.568;2022-10-04T08:15:15;99657.00;;;9.40
73937;BMP180;59249;59.736;30.568;2022-10-04T08:18:04;99662.00;;;9.50
73937;BMP180;59249;59.736;30.568;2022-10-04T08:20:48;99662.00;;;9.50
73937;BMP180;59249;59.736;30.568;2022-10-04T08:23:49;99665.00;;;9.70
73937;BMP180;59249;59.736;30.568;2022-10-04T08:26:52;99664.00;;;9.80
73937;BMP180;59249;59.736;30.568;2022-10-04T08:29:50;99672.00;;;9.90
73937;BMP180;59249;59.736;30.568;2022-10-04T08:32:50;99670.00;;;10.00
73937;BMP180;59249;59.736;30.568;2022-10-04T08:35:54;99671.00;;;10.10
73937;BMP180;59249;59.736;30.568;2022-10-04T08:38:46;99675.00;;;10.00
73937;BMP180;59249;59.736;30.568;2022-10-04T08:55:37;99710.00;;;9.90
73937;BMP180;59249;59.736;30.568;2022-10-04T08:58:21;99716.00;;;10.10
73937;BMP180;59249;59.736;30.568;2022-10-04T09:01:37;99725.00;;;10.10
73937;BMP180;59249;59.736;30.568;2022-10-04T09:04:39;99724.00;;;10.10
73937;BMP180;59249;59.736;30.568;2022-10-04T09:07:47;99729.00;;;10.10
73937;BMP180;59249;59.736;30.568;2022-10-04T09:11:00;99739.00;;;10.20
73937;BMP180;59249;59.736;30.568;2022-10-04T09:14:12;99741.00;;;10.40
73937;BMP180;59249;59.736;30.568;2022-10-04T09:17:17;99744.00;;;10.40
73937;BMP180;59249;59.736;30.568;2022-10-04T09:19:54;99750.00;;;10.40
73937;BMP180;59249;59.736;30.568;2022-10-04T09:22:56;99744.00;;;10.40
73937;BMP180;59249;59.736;30.568;2022-10-04T09:25:59;99755.00;;;10.40
73937;BMP180;59249;59.736;30.568;2022-10-04T09:36:22;99764.00;;;10.50
73937;BMP180;59249;59.736;30.568;2022-10-04T09:46:51;99792.00;;;10.60
73937;BMP180;59249;59.736;30.568;2022-10-04T09:49:43;99788.00;;;10.50
73937;BMP180;59249;59.736;30.568;2022-10-04T09:52:40;99783.00;;;10.50
73937;BMP180;59249;59.736;30.568;2022-10-04T09:55:27;99790.00;;;10.50
73937;BMP180;59249;59.736;30.568;2022-10-04T09:58:34;99795.00;;;10.60
73937;BMP180;59249;59.736;30.568;2022-10-04T10:01:30;99793.00;;;10.60
73937;BMP180;59249;59.736;30.568;2022-10-04T10:04:27;99796.00;;;10.70
73937;BMP180;59249;59.736;30.568;2022-10-04T10:07:35;99794.00;;;10.80
73937;BMP180;59249;59.736;30.568;2022-10-04T10:10:34;99791.00;;;10.80
73937;BMP180;59249;59.736;30.568;2022-10-04T10:13:50;99789.00;;;11.00
73937;BMP180;59249;59.736;30.568;2022-10-04T10:16:48;99788.00;;;11.20
73937;BMP180;59249;59.736;30.568;2022-10-04T10:19:51;99790.00;;;11.40
73937;BMP180;59249;59.736;30.568;2022-10-04T10:23:01;99805.00;;;11.30
73937;BMP180;59249;59.736;30.568;2022-10-04T10:29:45;99819.00;;;11.20
73937;BMP180;59249;59.736;30.568;2022-10-04T10:33:15;99818.00;;;11.10
73937;BMP180;59249;59.736;30.568;2022-10-04T10:36:29;99823.00;;;11.10
73937;BMP180;59249;59.736;30.568;2022-10-04T10:39:47;99837.00;;;11.10
73937;BMP180;59249;59.736;30.568;2022-10-04T10:42:52;99839.00;;;11.10
73937;BMP180;59249;59.736;30.568;2022-10-04T10:46:02;99837.00;;;11.00
73937;BMP180;59249;59.736;30.568;2022-10-04T10:48:53;99843.00;;;11.10
73937;BMP180;59249;59.736;30.568;2022-10-04T10:55:19;99855.00;;;11.10
73937;BMP180;59249;59.736;30.568;2022-10-04T10:58:59;99861.00;;;11.10
73937;BMP180;59249;59.736;30.568;2022-10-04T11:12:51;99863.00;;;11.10
73937;BMP180;59249;59.736;30.568;2022-10-04T11:15:55;99863.00;;;11.30
73937;BMP180;59249;59.736;30.568;2022-10-04T11:19:08;99873.00;;;11.70
73937;BMP180;59249;59.736;30.568;2022-10-04T11:22:50;99880.00;;;11.90
73937;BMP180;59249;59.736;30.568;2022-10-04T11:26:11;99883.00;;;12.00
73937;BMP180;59249;59.736;30.568;2022-10-04T11:29:21;99888.00;;;11.90
73937;BMP180;59249;59.736;30.568;2022-10-04T11:36:19;99887.00;;;11.80
73937;BMP180;59249;59.736;30.568;2022-10-04T11:39:05;99891.00;;;11.90
73937;BMP180;59249;59.736;30.568;2022-10-04T11:42:12;99897.00;;;11.90
73937;BMP180;59249;59.736;30.568;2022-10-04T11:45:22;99906.00;;;11.70
73937;BMP180;59249;59.736;30.568;2022-10-04T11:48:18;99911.00;;;11.90
73937;BMP180;59249;59.736;30.568;2022-10-04T11:51:50;99918.00;;;11.80
73937;BMP180;59249;59.736;30.568;2022-10-04T11:55:20;99923.00;;;11.80
73937;BMP180;59249;59.736;30.568;2022-10-04T11:58:30;99932.00;;;11.80
73937;BMP180;59249;59.736;30.568;2022-10-04T12:08:26;99941.00;;;11.70
73937;BMP180;59249;59.736;30.568;2022-10-04T12:11:23;99943.00;;;11.70
73937;BMP180;59249;59.736;30.568;2022-10-04T12:14:47;99951.00;;;11.60
73937;BMP180;59249;59.736;30.568;2022-10-04T12:17:48;99950.00;;;11.70
73937;BMP180;59249;59.736;30.568;2022-10-04T12:21:15;99950.00;;;11.40
73937;BMP180;59249;59.736;30.568;2022-10-04T12:24:19;99962.00;;;11.40
73937;BMP180;59249;59.736;30.568;2022-10-04T12:27:52;99967.00;;;11.40
73937;BMP180;59249;59.736;30.568;2022-10-04T12:33:59;99972.00;;;11.20
73937;BMP180;59249;59.736;30.568;2022-10-04T12:37:08;99978.00;;;11.20
73937;BMP180;59249;59.736;30.568;2022-10-04T12:40:21;99987.00;;;11.20
73937;BMP180;59249;59.736;30.568;2022-10-04T12:43:06;99977.00;;;11.20
73937;BMP180;59249;59.736;30.568;2022-10-04T12:45:57;99988.00;;;11.20
73937;BMP180;59249;59.736;30.568;2022-10-04T12:48:55;99984.00;;;11.20
73937;BMP180;59249;59.736;30.568;2022-10-04T12:51:53;99999.00;;;11.10
73937;BMP180;59249;59.736;30.568;2022-10-04T12:54:38;100001.00;;;11.00
73937;BMP180;59249;59.736;30.568;2022-10-04T12:57:33;100003.00;;;11.10
73937;BMP180;59249;59.736;30.568;2022-10-04T13:00:17;100014.00;;;11.10
73937;BMP180;59249;59.736;30.568;2022-10-04T13:06:09;100020.00;;;11.00
73937;BMP180;59249;59.736;30.568;2022-10-04T13:08:59;100017.00;;;11.10
73937;BMP180;59249;59.736;30.568;2022-10-04T13:11:52;100025.00;;;10.90
73937;BMP180;59249;59.736;30.568;2022-10-04T13:14:45;100027.00;;;10.90
73937;BMP180;59249;59.736;30.568;2022-10-04T13:17:33;100024.00;;;10.80
73937;BMP180;59249;59.736;30.568;2022-10-04T13:20:28;100023.00;;;10.70
73937;BMP180;59249;59.736;30.568;2022-10-04T13:23:13;100023.00;;;10.70
73937;BMP180;59249;59.736;30.568;2022-10-04T13:26:04;100026.00;;;10.70
73937;BMP180;59249;59.736;30.568;2022-10-04T13:28:48;100028.00;;;10.60
73937;BMP180;59249;59.736;30.568;2022-10-04T13:31:34;100033.00;;;10.60
73937;BMP180;59249;59.736;30.568;2022-10-04T13:34:18;100029.00;;;10.60
73937;BMP180;59249;59.736;30.568;2022-10-04T13:37:08;100039.00;;;10.50
73937;BMP180;59249;59.736;30.568;2022-10-04T13:43:29;100042.00;;;10.50
73937;BMP180;59249;59.736;30.568;2022-10-04T13:46:21;100045.00;;;10.50
73937;BMP180;59249;59.736;30.568;2022-10-04T13:49:25;100051.00;;;10.50
73937;BMP180;59249;59.736;30.568;2022-10-04T13:52:11;100053.00;;;10.50
73937;BMP180;59249;59.736;30.568;2022-10-04T13:55:21;100060.00;;;10.50
73937;BMP180;59249;59.736;30.568;2022-10-04T13:58:24;100069.00;;;10.40
73937;BMP180;59249;59.736;30.568;2022-10-04T14:01:19;100068.00;;;10.40
73937;BMP180;59249;59.736;30.568;2022-10-04T14:08:09;100083.00;;;10.40
73937;BMP180;59249;59.736;30.568;2022-10-04T14:11:20;100078.00;;;10.30
73937;BMP180;59249;59.736;30.568;2022-10-04T14:17:58;100079.00;;;10.30
73937;BMP180;59249;59.736;30.568;2022-10-04T14:21:05;100083.00;;;10.30
73937;BMP180;59249;59.736;30.568;2022-10-04T14:30:37;100092.00;;;10.00
73937;BMP180;59249;59.736;30.568;2022-10-04T14:33:49;100086.00;;;9.90
73937;BMP180;59249;59.736;30.568;2022-10-04T14:37:09;100090.00;;;9.90
73937;BMP180;59249;59.736;30.568;2022-10-04T14:40:13;100102.00;;;9.90
73937;BMP180;59249;59.736;30.568;2022-10-04T14:43:12;100097.00;;;9.90
73937;BMP180;59249;59.736;30.568;2022-10-04T14:46:14;100105.00;;;9.90
73937;BMP180;59249;59.736;30.568;2022-10-04T14:49:06;100107.00;;;9.80
73937;BMP180;59249;59.736;30.568;2022-10-04T14:51:54;100110.00;;;9.80
73937;BMP180;59249;59.736;30.568;2022-10-04T14:54:46;100114.00;;;9.70
73937;BMP180;59249;59.736;30.568;2022-10-04T15:00:18;100121.00;;;9.60
73937;BMP180;59249;59.736;30.568;2022-10-04T15:06:07;100128.00;;;9.70
73937;BMP180;59249;59.736;30.568;2022-10-04T15:08:53;100134.00;;;9.70
73937;BMP180;59249;59.736;30.568;2022-10-04T15:11:43;100132.00;;;9.70
73937;BMP180;59249;59.736;30.568;2022-10-04T15:14:41;100125.00;;;9.60
73937;BMP180;59249;59.736;30.568;2022-10-04T15:17:34;100134.00;;;9.50
73937;BMP180;59249;59.736;30.568;2022-10-04T15:20:15;100141.00;;;9.50
73937;BMP180;59249;59.736;30.568;2022-10-04T15:23:07;100141.00;;;9.50
73937;BMP180;59249;59.736;30.568;2022-10-04T15:25:44;100147.00;;;9.40
73937;BMP180;59249;59.736;30.568;2022-10-04T15:28:37;100150.00;;;9.40
73937;BMP180;59249;59.736;30.568;2022-10-04T15:31:21;100156.00;;;9.40
73937;BMP180;59249;59.736;30.568;2022-10-04T15:34:01;100151.00;;;9.30
73937;BMP180;59249;59.736;30.568;2022-10-04T15:36:50;100162.00;;;9.30
73937;BMP180;59249;59.736;30.568;2022-10-04T15:40:06;100164.00;;;9.20
73937;BMP180;59249;59.736;30.568;2022-10-04T15:46:24;100170.00;;;9.10
73937;BMP180;59249;59.736;30.568;2022-10-04T15:49:22;100172.00;;;9.00
73937;BMP180;59249;59.736;30.568;2022-10-04T15:52:36;100175.00;;;8.90
73937;BMP180;59249;59.736;30.568;2022-10-04T15:55:27;100173.00;;;8.90
73937;BMP180;59249;59.736;30.568;2022-10-04T15:58:18;100171.00;;;8.90
73937;BMP180;59249;59.736;30.568;2022-10-04T16:01:18;100171.00;;;8.80
73937;BMP180;59249;59.736;30.568;2022-10-04T16:04:31;100171.00;;;8.70
73937;BMP180;59249;59.736;30.568;2022-10-04T16:07:34;100175.00;;;8.70
73937;BMP180;59249;59.736;30.568;2022-10-04T16:10:25;100169.00;;;8.60
73937;BMP180;59249;59.736;30.568;2022-10-04T16:13:21;100166.00;;;8.60
73937;BMP180;59249;59.736;30.568;2022-10-04T16:19:44;100171.00;;;8.40
73937;BMP180;59249;59.736;30.568;2022-10-04T16:22:27;100189.00;;;8.40
73937;BMP180;59249;59.736;30.568;2022-10-04T16:24:58;100177.00;;;8.30
73937;BMP180;59249;59.736;30.568;2022-10-04T16:27:57;100176.00;;;8.10
73937;BMP180;59249;59.736;30.568;2022-10-04T16:30:38;100172.00;;;8.10
73937;BMP180;59249;59.736;30.568;2022-10-04T16:33:21;100179.00;;;8.10
73937;BMP180;59249;59.736;30.568;2022-10-04T16:36:07;100182.00;;;8.00
73937;BMP180;59249;59.736;30.568;2022-10-04T16:38:46;100176.00;;;7.90
73937;BMP180;59249;59.736;30.568;2022-10-04T16:41:40;100184.00;;;7.90
73937;BMP180;59249;59.736;30.568;2022-10-04T16:44:28;100179.00;;;7.80
73937;BMP180;59249;59.736;30.568;2022-10-04T16:47:16;100171.00;;;7.80
73937;BMP180;59249;59.736;30.568;2022-10-04T16:49:51;100171.00;;;7.80
73937;BMP180;59249;59.736;30.568;2022-10-04T16:52:42;100180.00;;;7.70
73937;BMP180;59249;59.736;30.568;2022-10-04T16:55:47;100190.00;;;7.60
73937;BMP180;59249;59.736;30.568;2022-10-04T16:58:48;100185.00;;;7.60
73937;BMP180;59249;59.736;30.568;2022-10-04T17:05:03;100176.00;;;7.60
73937;BMP180;59249;59.736;30.568;2022-10-04T17:08:15;100187.00;;;7.50
73937;BMP180;59249;59.736;30.568;2022-10-04T17:11:09;100182.00;;;7.50
73937;BMP180;59249;59.736;30.568;2022-10-04T17:13:54;100192.00;;;7.50
73937;BMP180;59249;59.736;30.568;2022-10-04T17:16:35;100186.00;;;7.50
73937;BMP180;59249;59.736;30.568;2022-10-04T17:19:28;100187.00;;;7.40
73937;BMP180;59249;59.736;30.568;2022-10-04T17:22:13;100184.00;;;7.40
73937;BMP180;59249;59.736;30.568;2022-10-04T17:24:57;100180.00;;;7.30
73937;BMP180;59249;59.736;30.568;2022-10-04T17:27:44;100184.00;;;7.30
73937;BMP180;59249;59.736;30.568;2022-10-04T17:30:20;100175.00;;;7.30
73937;BMP180;59249;59.736;30.568;2022-10-04T17:33:04;100178.00;;;7.20
73937;BMP180;59249;59.736;30.568;2022-10-04T17:36:13;100193.00;;;7.20
73937;BMP180;59249;59.736;30.568;2022-10-04T17:39:19;100193.00;;;7.20
73937;BMP180;59249;59.736;30.568;2022-10-04T17:42:18;100206.00;;;7.10
73937;BMP180;59249;59.736;30.568;2022-10-04T17:45:13;100204.00;;;7.10
73937;BMP180;59249;59.736;30.568;2022-10-04T17:47:57;100211.00;;;7.10
73937;BMP180;59249;59.736;30.568;2022-10-04T17:50:53;100203.00;;;7.00
73937;BMP180;59249;59.736;30.568;2022-10-04T17:53:50;100198.00;;;7.10